sensor_id;sensor_type;location;lat;lon;timestamp;pressure;altitude;pressure_sealevel;temperature;humidity
12636;BME280;6383;50.830;7.210;2023-02-01T00:02:03;101295.44;;;7.68;89.70
12636;BME280;6383;50.830;7.210;2023-02-01T00:04:40;101303.31;;;7.70;89.83
12636;BME280;6383;50.830;7.210;2023-02-01T00:07:15;101303.84;;;7.72;90.38
12636;BME280;6383;50.830;7.210;2023-02-01T00:09:44;101307.91;;;7.74;90.56
12636;BME280;6383;50.830;7.210;2023-02-01T00:12:20;101299.78;;;7.74;90.32
12636;BME280;6383;50.830;7.210;2023-02-01T00:14:49;101297.63;;;7.76;90.66
12636;BME280;6383;50.830;7.210;2023-02-01T00:17:18;101299.00;;;7.79;89.92
12636;BME280;6383;50.830;7.210;2023-02-01T00:19:48;101295.47;;;7.78;90.39
12636;BME280;6383;50.830;7.210;2023-02-01T00:22:18;101299.81;;;7.79;90.41
12636;BME280;6383;50.830;7.210;2023-02-01T00:24:47;101302.28;;;7.81;89.82
12636;BME280;6383;50.830;7.210;2023-02-01T00:27:23;101297.94;;;7.80;89.73
12636;BME280;6383;50.830;7.210;2023-02-01T00:29:54;101296.03;;;7.81;89.23
12636;BME280;6383;50.830;7.210;2023-02-01T00:32:23;101306.06;;;7.80;89.70
12636;BME280;6383;50.830;7.210;2023-02-01T00:34:53;101307.13;;;7.79;90.26
12636;BME280;6383;50.830;7.210;2023-02-01T00:37:22;101313.38;;;7.79;89.88
12636;BME280;6383;50.830;7.210;2023-02-01T00:39:51;101311.47;;;7.80;89.64
12636;BME280;6383;50.830;7.210;2023-02-01T00:42:22;101309.84;;;7.79;89.94
12636;BME280;6383;50.830;7.210;2023-02-01T00:44:51;101309.59;;;7.81;89.80
12636;BME280;6383;50.830;7.210;2023-02-01T00:47:20;101299.00;;;7.79;90.02
12636;BME280;6383;50.830;7.210;2023-02-01T00:49:49;101298.44;;;7.77;89.75
12636;BME280;6383;50.830;7.210;2023-02-01T00:52:20;101302.25;;;7.76;89.38
12636;BME280;6383;50.830;7.210;2023-02-01T00:54:49;101303.31;;;7.75;89.28
12636;BME280;6383;50.830;7.210;2023-02-01T00:57:18;101305.47;;;7.73;88.85
12636;BME280;6383;50.830;7.210;2023-02-01T00:59:47;101303.03;;;7.71;88.93
12636;BME280;6383;50.830;7.210;2023-02-01T01:02:16;101308.72;;;7.70;88.87
12636;BME280;6383;50.830;7.210;2023-02-01T01:04:45;101304.38;;;7.69;89.08
12636;BME280;6383;50.830;7.210;2023-02-01T01:07:14;101305.47;;;7.68;88.88
12636;BME280;6383;50.830;7.210;2023-02-01T01:09:44;101297.34;;;7.68;88.16
12636;BME280;6383;50.830;7.210;2023-02-01T01:12:13;101284.59;;;7.68;88.77
12636;BME280;6383;50.830;7.210;2023-02-01T01:14:43;101275.66;;;7.68;87.67
12636;BME280;6383;50.830;7.210;2023-02-01T01:17:12;101268.59;;;7.67;87.61
12636;BME280;6383;50.830;7.210;2023-02-01T01:19:39;101261.56;;;7.66;87.13
12636;BME280;6383;50.830;7.210;2023-02-01T01:22:07;101262.09;;;7.68;87.89
12636;BME280;6383;50.830;7.210;2023-02-01T01:24:36;101252.34;;;7.67;86.73
12636;BME280;6383;50.830;7.210;2023-02-01T01:27:06;101259.66;;;7.66;87.10
12636;BME280;6383;50.830;7.210;2023-02-01T01:29:36;101264.25;;;7.66;86.35
12636;BME280;6383;50.830;7.210;2023-02-01T01:32:05;101271.56;;;7.65;85.25
12636;BME280;6383;50.830;7.210;2023-02-01T01:34:34;101278.63;;;7.66;85.32
12636;BME280;6383;50.830;7.210;2023-02-01T01:37:03;101273.47;;;7.65;85.11
12636;BME280;6383;50.830;7.210;2023-02-01T01:39:32;101274.03;;;7.67;85.30
12636;BME280;6383;50.830;7.210;2023-02-01T01:42:01;101282.16;;;7.67;84.86
12636;BME280;6383;50.830;7.210;2023-02-01T01:45:02;101294.63;;;7.68;84.56
12636;BME280;6383;50.830;7.210;2023-02-01T01:47:36;101290.53;;;7.65;83.27
12636;BME280;6383;50.830;7.210;2023-02-01T01:50:08;101300.56;;;7.65;82.61
12636;BME280;6383;50.830;7.210;2023-02-01T01:52:39;101297.84;;;7.65;83.21
12636;BME280;6383;50.830;7.210;2023-02-01T01:55:10;101297.03;;;7.64;83.11
12636;BME280;6383;50.830;7.210;2023-02-01T01:57:42;101289.72;;;7.65;82.25
12636;BME280;6383;50.830;7.210;2023-02-01T02:00:17;101297.84;;;7.65;81.76
12636;BME280;6383;50.830;7.210;2023-02-01T02:02:52;101293.25;;;7.65;81.28
12636;BME280;6383;50.830;7.210;2023-02-01T02:05:22;101287.28;;;7.63;81.79
12636;BME280;6383;50.830;7.210;2023-02-01T02:07:53;101281.59;;;7.65;81.03
12636;BME280;6383;50.830;7.210;2023-02-01T02:10:22;101270.75;;;7.65;81.08
12636;BME280;6383;50.830;7.210;2023-02-01T02:13:15;101269.13;;;7.64;80.44
12636;BME280;6383;50.830;7.210;2023-02-01T02:15:58;101257.47;;;7.63;79.91
12636;BME280;6383;50.830;7.210;2023-02-01T02:18:34;101256.91;;;7.61;80.16
12636;BME280;6383;50.830;7.210;2023-02-01T02:21:11;101247.97;;;7.61;80.27
12636;BME280;6383;50.830;7.210;2023-02-01T02:27:02;101251.25;;;7.63;80.55
12636;BME280;6383;50.830;7.210;2023-02-01T02:30:15;101246.09;;;7.61;80.24
12636;BME280;6383;50.830;7.210;2023-02-01T02:36:06;101261.78;;;7.59;80.12
12636;BME280;6383;50.830;7.210;2023-02-01T02:38:42;101253.91;;;7.58;79.84
12636;BME280;6383;50.830;7.210;2023-02-01T02:41:16;101261.22;;;7.57;79.54
12636;BME280;6383;50.830;7.210;2023-02-01T02:44:08;101245.78;;;7.58;79.10
12636;BME280;6383;50.830;7.210;2023-02-01T02:47:00;101245.78;;;7.58;79.31
12636;BME280;6383;50.830;7.210;2023-02-01T02:49:52;101248.50;;;7.58;79.31
12636;BME280;6383;50.830;7.210;2023-02-01T02:52:42;101250.13;;;7.59;80.20
12636;BME280;6383;50.830;7.210;2023-02-01T02:55:30;101249.88;;;7.60;79.67
12636;BME280;6383;50.830;7.210;2023-02-01T02:58:02;101254.22;;;7.61;80.12
12636;BME280;6383;50.830;7.210;2023-02-01T03:00:51;101244.19;;;7.62;80.09
12636;BME280;6383;50.830;7.210;2023-02-01T03:03:39;101250.41;;;7.62;80.06
12636;BME280;6383;50.830;7.210;2023-02-01T03:06:26;101240.41;;;7.63;79.69
12636;BME280;6383;50.830;7.210;2023-02-01T03:08:57;101236.63;;;7.64;79.84
12636;BME280;6383;50.830;7.210;2023-02-01T03:11:27;101231.19;;;7.64;80.20
12636;BME280;6383;50.830;7.210;2023-02-01T03:14:18;101225.78;;;7.64;79.78
12636;BME280;6383;50.830;7.210;2023-02-01T03:16:51;101220.38;;;7.64;79.50
12636;BME280;6383;50.830;7.210;2023-02-01T03:19:25;101225.78;;;7.64;79.56
12636;BME280;6383;50.830;7.210;2023-02-01T03:22:00;101222.53;;;7.62;79.14
12636;BME280;6383;50.830;7.210;2023-02-01T03:24:34;101220.06;;;7.60;79.76
12636;BME280;6383;50.830;7.210;2023-02-01T03:27:08;101215.47;;;7.61;79.03
12636;BME280;6383;50.830;7.210;2023-02-01T03:29:45;101208.97;;;7.62;79.24
12636;BME280;6383;50.830;7.210;2023-02-01T03:32:17;101222.53;;;7.62;79.53
12636;BME280;6383;50.830;7.210;2023-02-01T03:34:47;101226.03;;;7.62;79.33
12636;BME280;6383;50.830;7.210;2023-02-01T03:37:23;101224.16;;;7.63;79.39
12636;BME280;6383;50.830;7.210;2023-02-01T03:40:00;101229.56;;;7.63;79.39
12636;BME280;6383;50.830;7.210;2023-02-01T03:42:31;101231.19;;;7.64;78.53
12636;BME280;6383;50.830;7.210;2023-02-01T03:45:09;101226.34;;;7.66;79.29
12636;BME280;6383;50.830;7.210;2023-02-01T03:47:41;101211.16;;;7.65;78.92
12636;BME280;6383;50.830;7.210;2023-02-01T03:50:14;101222.00;;;7.65;78.72
12636;BME280;6383;50.830;7.210;2023-02-01T03:52:47;101227.41;;;7.65;77.89
12636;BME280;6383;50.830;7.210;2023-02-01T03:55:22;101229.88;;;7.66;78.92
12636;BME280;6383;50.830;7.210;2023-02-01T03:57:55;101224.44;;;7.66;78.71
12636;BME280;6383;50.830;7.210;2023-02-01T04:00:26;101217.13;;;7.67;78.06
12636;BME280;6383;50.830;7.210;2023-02-01T04:02:55;101211.44;;;7.68;78.58
12636;BME280;6383;50.830;7.210;2023-02-01T04:05:27;101222.28;;;7.68;78.22
12636;BME280;6383;50.830;7.210;2023-02-01T04:07:56;101206.28;;;7.67;77.83
12636;BME280;6383;50.830;7.210;2023-02-01T04:10:27;101212.53;;;7.67;77.91
12636;BME280;6383;50.830;7.210;2023-02-01T04:12:58;101210.09;;;7.66;77.82
12636;BME280;6383;50.830;7.210;2023-02-01T04:15:27;101211.16;;;7.65;77.73
12636;BME280;6383;50.830;7.210;2023-02-01T04:17:56;101216.56;;;7.65;77.43
12636;BME280;6383;50.830;7.210;2023-02-01T04:20:25;101219.28;;;7.65;77.62
12636;BME280;6383;50.830;7.210;2023-02-01T04:22:54;101214.94;;;7.64;77.38
12636;BME280;6383;50.830;7.210;2023-02-01T04:25:24;101216.84;;;7.63;77.05
12636;BME280;6383;50.830;7.210;2023-02-01T04:27:54;101217.91;;;7.62;77.36
12636;BME280;6383;50.830;7.210;2023-02-01T04:30:23;101221.44;;;7.63;76.67
12636;BME280;6383;50.830;7.210;2023-02-01T04:32:52;101230.38;;;7.63;76.88
12636;BME280;6383;50.830;7.210;2023-02-01T04:35:21;101217.91;;;7.62;77.12
12636;BME280;6383;50.830;7.210;2023-02-01T04:37:50;101223.34;;;7.62;76.83
12636;BME280;6383;50.830;7.210;2023-02-01T04:40:19;101215.75;;;7.64;77.03
12636;BME280;6383;50.830;7.210;2023-02-01T04:42:49;101211.16;;;7.65;76.51
12636;BME280;6383;50.830;7.210;2023-02-01T04:45:19;101214.69;;;7.65;77.41
12636;BME280;6383;50.830;7.210;2023-02-01T04:47:49;101210.09;;;7.66;76.90
12636;BME280;6383;50.830;7.210;2023-02-01T04:50:18;101217.41;;;7.65;76.81
12636;BME280;6383;50.830;7.210;2023-02-01T04:52:48;101213.88;;;7.65;76.46
12636;BME280;6383;50.830;7.210;2023-02-01T04:55:17;101208.44;;;7.65;76.78
12636;BME280;6383;50.830;7.210;2023-02-01T04:57:49;101209.00;;;7.67;76.41
12636;BME280;6383;50.830;7.210;2023-02-01T05:00:20;101196.28;;;7.67;76.31
12636;BME280;6383;50.830;7.210;2023-02-01T05:02:49;101183.00;;;7.66;76.89
12636;BME280;6383;50.830;7.210;2023-02-01T05:05:18;101180.28;;;7.66;76.50
12636;BME280;6383;50.830;7.210;2023-02-01T05:07:47;101175.94;;;7.65;75.86
12636;BME280;6383;50.830;7.210;2023-02-01T05:10:16;101175.13;;;7.64;75.88
12636;BME280;6383;50.830;7.210;2023-02-01T05:12:45;101183.50;;;7.63;76.11
12636;BME280;6383;50.830;7.210;2023-02-01T05:15:34;101175.34;;;7.58;76.26
12636;BME280;6383;50.830;7.210;2023-02-01T05:18:03;101185.13;;;7.59;75.64
12636;BME280;6383;50.830;7.210;2023-02-01T05:20:32;101189.72;;;7.58;76.13
12636;BME280;6383;50.830;7.210;2023-02-01T05:23:00;101196.22;;;7.57;75.49
12636;BME280;6383;50.830;7.210;2023-02-01T05:25:28;101203.56;;;7.57;76.24
12636;BME280;6383;50.830;7.210;2023-02-01T05:27:57;101206.53;;;7.55;75.41
12636;BME280;6383;50.830;7.210;2023-02-01T05:30:26;101218.44;;;7.54;75.67
12636;BME280;6383;50.830;7.210;2023-02-01T05:32:57;101213.28;;;7.53;76.20
12636;BME280;6383;50.830;7.210;2023-02-01T05:35:26;101217.06;;;7.52;75.58
12636;BME280;6383;50.830;7.210;2023-02-01T05:37:55;101214.63;;;7.50;75.15
12636;BME280;6383;50.830;7.210;2023-02-01T05:40:24;101209.47;;;7.49;75.51
12636;BME280;6383;50.830;7.210;2023-02-01T05:42:53;101207.56;;;7.49;75.70
12636;BME280;6383;50.830;7.210;2023-02-01T05:45:22;101210.78;;;7.46;75.02
12636;BME280;6383;50.830;7.210;2023-02-01T05:47:51;101215.41;;;7.46;75.62
12636;BME280;6383;50.830;7.210;2023-02-01T05:50:22;101208.09;;;7.46;76.24
12636;BME280;6383;50.830;7.210;2023-02-01T05:52:51;101208.91;;;7.47;75.46
12636;BME280;6383;50.830;7.210;2023-02-01T05:55:20;101209.97;;;7.46;75.64
12636;BME280;6383;50.830;7.210;2023-02-01T05:57:49;101217.03;;;7.47;76.06
12636;BME280;6383;50.830;7.210;2023-02-01T06:00:19;101213.75;;;7.44;75.59
12636;BME280;6383;50.830;7.210;2023-02-01T06:02:48;101202.94;;;7.44;75.96
12636;BME280;6383;50.830;7.210;2023-02-01T06:05:17;101215.66;;;7.44;74.79
12636;BME280;6383;50.830;7.210;2023-02-01T06:07:48;101213.22;;;7.42;74.80
12636;BME280;6383;50.830;7.210;2023-02-01T06:10:18;101224.34;;;7.41;74.62
12636;BME280;6383;50.830;7.210;2023-02-01T06:12:47;101218.91;;;7.41;74.86
12636;BME280;6383;50.830;7.210;2023-02-01T06:15:16;101217.81;;;7.42;75.33
12636;BME280;6383;50.830;7.210;2023-02-01T06:17:46;101211.88;;;7.40;74.52
12636;BME280;6383;50.830;7.210;2023-02-01T06:20:16;101204.81;;;7.39;75.36
12636;BME280;6383;50.830;7.210;2023-02-01T06:22:45;101202.94;;;7.39;74.82
12636;BME280;6383;50.830;7.210;2023-02-01T06:25:19;101192.91;;;7.40;74.10
12636;BME280;6383;50.830;7.210;2023-02-01T06:27:48;101192.09;;;7.39;74.71
12636;BME280;6383;50.830;7.210;2023-02-01T06:30:17;101192.91;;;7.40;74.92
12636;BME280;6383;50.830;7.210;2023-02-01T06:32:50;101201.03;;;7.40;73.96
12636;BME280;6383;50.830;7.210;2023-02-01T06:35:21;101204.00;;;7.38;74.42
12636;BME280;6383;50.830;7.210;2023-02-01T06:37:50;101194.25;;;7.37;74.46
12636;BME280;6383;50.830;7.210;2023-02-01T06:40:21;101199.94;;;7.36;74.04
12636;BME280;6383;50.830;7.210;2023-02-01T06:42:50;101200.75;;;7.36;73.38
12636;BME280;6383;50.830;7.210;2023-02-01T06:45:19;101203.44;;;7.36;73.25
12636;BME280;6383;50.830;7.210;2023-02-01T06:47:48;101208.03;;;7.36;73.65
12636;BME280;6383;50.830;7.210;2023-02-01T06:50:17;101206.41;;;7.35;74.00
12636;BME280;6383;50.830;7.210;2023-02-01T06:52:46;101219.13;;;7.34;73.92
12636;BME280;6383;50.830;7.210;2023-02-01T06:55:16;101222.94;;;7.33;74.01
12636;BME280;6383;50.830;7.210;2023-02-01T06:57:46;101231.59;;;7.35;73.54
12636;BME280;6383;50.830;7.210;2023-02-01T07:00:16;101225.38;;;7.35;74.28
12636;BME280;6383;50.830;7.210;2023-02-01T07:02:45;101226.44;;;7.34;74.04
12636;BME280;6383;50.830;7.210;2023-02-01T07:05:15;101233.75;;;7.33;74.10
12636;BME280;6383;50.830;7.210;2023-02-01T07:07:44;101233.50;;;7.35;73.87
12636;BME280;6383;50.830;7.210;2023-02-01T07:10:16;101222.66;;;7.35;74.01
12636;BME280;6383;50.830;7.210;2023-02-01T07:12:47;101219.13;;;7.34;73.33
12636;BME280;6383;50.830;7.210;2023-02-01T07:15:16;101226.19;;;7.35;73.62
12636;BME280;6383;50.830;7.210;2023-02-01T07:17:45;101223.47;;;7.35;73.61
12636;BME280;6383;50.830;7.210;2023-02-01T07:20:15;101238.09;;;7.34;73.55
12636;BME280;6383;50.830;7.210;2023-02-01T07:22:44;101241.34;;;7.36;73.41
12636;BME280;6383;50.830;7.210;2023-02-01T07:25:13;101239.72;;;7.35;73.70
12636;BME280;6383;50.830;7.210;2023-02-01T07:27:46;101239.72;;;7.35;74.19
12636;BME280;6383;50.830;7.210;2023-02-01T07:30:16;101240.53;;;7.36;73.49
12636;BME280;6383;50.830;7.210;2023-02-01T07:32:45;101255.72;;;7.37;73.27
12636;BME280;6383;50.830;7.210;2023-02-01T07:35:15;101258.41;;;7.37;74.51
12636;BME280;6383;50.830;7.210;2023-02-01T07:37:44;101269.00;;;7.38;73.60
12636;BME280;6383;50.830;7.210;2023-02-01T07:40:13;101265.22;;;7.39;73.53
12636;BME280;6383;50.830;7.210;2023-02-01T07:42:42;101258.16;;;7.38;73.96
12636;BME280;6383;50.830;7.210;2023-02-01T07:45:12;101261.94;;;7.37;74.09
12636;BME280;6383;50.830;7.210;2023-02-01T07:47:43;101266.53;;;7.37;73.01
12636;BME280;6383;50.830;7.210;2023-02-01T07:50:12;101265.72;;;7.36;73.12
12636;BME280;6383;50.830;7.210;2023-02-01T07:52:41;101264.66;;;7.37;73.85
12636;BME280;6383;50.830;7.210;2023-02-01T07:55:10;101262.75;;;7.38;73.70
12636;BME280;6383;50.830;7.210;2023-02-01T07:57:39;101261.38;;;7.35;73.70
12636;BME280;6383;50.830;7.210;2023-02-01T08:00:10;101262.22;;;7.36;73.90
12636;BME280;6383;50.830;7.210;2023-02-01T08:02:58;101267.38;;;7.37;74.45
12636;BME280;6383;50.830;7.210;2023-02-01T08:05:27;101266.28;;;7.38;73.93
12636;BME280;6383;50.830;7.210;2023-02-01T08:07:56;101274.41;;;7.38;74.15
12636;BME280;6383;50.830;7.210;2023-02-01T08:10:25;101269.00;;;7.38;74.22
12636;BME280;6383;50.830;7.210;2023-02-01T08:12:58;101271.69;;;7.38;73.62
12636;BME280;6383;50.830;7.210;2023-02-01T08:15:28;101277.13;;;7.38;72.99
12636;BME280;6383;50.830;7.210;2023-02-01T08:17:59;101279.81;;;7.38;73.53
12636;BME280;6383;50.830;7.210;2023-02-01T08:20:29;101272.25;;;7.40;73.71
12636;BME280;6383;50.830;7.210;2023-02-01T08:22:58;101274.97;;;7.40;73.62
12636;BME280;6383;50.830;7.210;2023-02-01T08:25:29;101278.75;;;7.39;73.83
12636;BME280;6383;50.830;7.210;2023-02-01T08:27:59;101289.31;;;7.41;73.63
12636;BME280;6383;50.830;7.210;2023-02-01T08:30:28;101278.75;;;7.39;73.91
12636;BME280;6383;50.830;7.210;2023-02-01T08:32:58;101276.88;;;7.40;73.03
12636;BME280;6383;50.830;7.210;2023-02-01T08:35:28;101289.59;;;7.39;73.64
12636;BME280;6383;50.830;7.210;2023-02-01T08:37:57;101283.34;;;7.39;73.95
12636;BME280;6383;50.830;7.210;2023-02-01T08:40:27;101286.88;;;7.39;73.51
12636;BME280;6383;50.830;7.210;2023-02-01T08:42:56;101286.63;;;7.41;74.01
12636;BME280;6383;50.830;7.210;2023-02-01T08:45:29;101312.59;;;7.42;73.63
12636;BME280;6383;50.830;7.210;2023-02-01T08:47:59;101294.44;;;7.42;73.23
12636;BME280;6383;50.830;7.210;2023-02-01T08:50:29;101294.44;;;7.42;73.88
12636;BME280;6383;50.830;7.210;2023-02-01T08:52:58;101292.56;;;7.43;73.83
12636;BME280;6383;50.830;7.210;2023-02-01T08:55:27;101307.72;;;7.44;73.66
12636;BME280;6383;50.830;7.210;2023-02-01T08:57:56;101307.72;;;7.44;73.33
12636;BME280;6383;50.830;7.210;2023-02-01T09:00:25;101310.19;;;7.46;73.79
12636;BME280;6383;50.830;7.210;2023-02-01T09:02:55;101324.53;;;7.46;74.28
12636;BME280;6383;50.830;7.210;2023-02-01T09:05:25;101319.69;;;7.48;74.02
12636;BME280;6383;50.830;7.210;2023-02-01T09:07:55;101324.03;;;7.49;73.27
12636;BME280;6383;50.830;7.210;2023-02-01T09:10:24;101331.91;;;7.51;73.57
12636;BME280;6383;50.830;7.210;2023-02-01T09:12:54;101320.81;;;7.52;73.34
12636;BME280;6383;50.830;7.210;2023-02-01T09:15:23;101319.47;;;7.55;74.10
12636;BME280;6383;50.830;7.210;2023-02-01T09:17:52;101314.06;;;7.55;73.88
12636;BME280;6383;50.830;7.210;2023-02-01T09:20:21;101308.38;;;7.56;73.01
12636;BME280;6383;50.830;7.210;2023-02-01T09:22:54;101303.22;;;7.60;74.04
12636;BME280;6383;50.830;7.210;2023-02-01T09:25:24;101308.13;;;7.63;72.95
12636;BME280;6383;50.830;7.210;2023-02-01T09:27:53;101311.94;;;7.67;73.42
12636;BME280;6383;50.830;7.210;2023-02-01T09:30:22;101307.09;;;7.69;72.89
12636;BME280;6383;50.830;7.210;2023-02-01T09:32:51;101301.94;;;7.72;73.39
12636;BME280;6383;50.830;7.210;2023-02-01T09:35:20;101312.25;;;7.75;72.79
12636;BME280;6383;50.830;7.210;2023-02-01T09:37:49;101310.38;;;7.76;72.82
12636;BME280;6383;50.830;7.210;2023-02-01T09:40:20;101302.78;;;7.78;72.79
12636;BME280;6383;50.830;7.210;2023-02-01T09:43:07;101303.34;;;7.80;72.25
12636;BME280;6383;50.830;7.210;2023-02-01T09:45:45;101305.78;;;7.82;72.95
12636;BME280;6383;50.830;7.210;2023-02-01T09:48:21;101310.97;;;7.83;72.82
12636;BME280;6383;50.830;7.210;2023-02-01T09:50:55;101310.41;;;7.81;72.87
12636;BME280;6383;50.830;7.210;2023-02-01T09:53:27;101309.06;;;7.84;72.74
12636;BME280;6383;50.830;7.210;2023-02-01T09:56:03;101318.00;;;7.84;72.98
12636;BME280;6383;50.830;7.210;2023-02-01T09:58:37;101310.69;;;7.85;72.27
12636;BME280;6383;50.830;7.210;2023-02-01T10:01:15;101309.63;;;7.86;72.23
12636;BME280;6383;50.830;7.210;2023-02-01T10:03:45;101316.63;;;7.87;72.69
12636;BME280;6383;50.830;7.210;2023-02-01T10:06:30;101303.91;;;7.87;71.95
12636;BME280;6383;50.830;7.210;2023-02-01T10:09:13;101294.19;;;7.86;71.60
12636;BME280;6383;50.830;7.210;2023-02-01T10:12:03;101296.59;;;7.88;71.96
12636;BME280;6383;50.830;7.210;2023-02-01T10:14:53;101302.00;;;7.88;72.43
12636;BME280;6383;50.830;7.210;2023-02-01T10:17:46;101295.78;;;7.87;71.54
12636;BME280;6383;50.830;7.210;2023-02-01T10:20:27;101299.31;;;7.88;71.84
12636;BME280;6383;50.830;7.210;2023-02-01T10:23:05;101298.50;;;7.87;72.18
12636;BME280;6383;50.830;7.210;2023-02-01T10:25:41;101294.69;;;7.88;72.36
12636;BME280;6383;50.830;7.210;2023-02-01T10:28:16;101290.91;;;7.89;71.95
12636;BME280;6383;50.830;7.210;2023-02-01T10:30:47;101287.13;;;7.90;72.39
12636;BME280;6383;50.830;7.210;2023-02-01T10:33:18;101285.22;;;7.91;71.97
12636;BME280;6383;50.830;7.210;2023-02-01T10:35:53;101282.25;;;7.92;72.13
12636;BME280;6383;50.830;7.210;2023-02-01T10:38:26;101274.94;;;7.93;71.49
12636;BME280;6383;50.830;7.210;2023-02-01T10:41:00;101290.69;;;7.96;71.09
12636;BME280;6383;50.830;7.210;2023-02-01T10:43:39;101293.13;;;7.97;71.43
12636;BME280;6383;50.830;7.210;2023-02-01T10:46:14;101277.41;;;7.99;71.30
12636;BME280;6383;50.830;7.210;2023-02-01T10:48:45;101286.06;;;8.01;71.04
12636;BME280;6383;50.830;7.210;2023-02-01T10:51:23;101280.13;;;8.04;71.32
12636;BME280;6383;50.830;7.210;2023-02-01T10:53:56;101282.88;;;8.09;71.98
12636;BME280;6383;50.830;7.210;2023-02-01T10:56:29;101275.03;;;8.13;71.44
12636;BME280;6383;50.830;7.210;2023-02-01T10:59:02;101257.94;;;8.18;70.80
12636;BME280;6383;50.830;7.210;2023-02-01T11:01:33;101262.31;;;8.24;71.18
12636;BME280;6383;50.830;7.210;2023-02-01T11:04:09;101255.81;;;8.30;70.65
12636;BME280;6383;50.830;7.210;2023-02-01T11:06:41;101257.75;;;8.34;70.30
12636;BME280;6383;50.830;7.210;2023-02-01T11:09:17;101249.34;;;8.41;71.62
12636;BME280;6383;50.830;7.210;2023-02-01T11:11:54;101257.47;;;8.46;70.04
12636;BME280;6383;50.830;7.210;2023-02-01T11:14:32;101249.06;;;8.47;70.52
12636;BME280;6383;50.830;7.210;2023-02-01T11:17:17;101251.25;;;8.51;70.31
12636;BME280;6383;50.830;7.210;2023-02-01T11:19:58;101246.38;;;8.53;69.81
12636;BME280;6383;50.830;7.210;2023-02-01T11:22:28;101252.63;;;8.53;68.99
12636;BME280;6383;50.830;7.210;2023-02-01T11:24:59;101251.53;;;8.54;68.44
12636;BME280;6383;50.830;7.210;2023-02-01T11:27:32;101267.81;;;8.54;68.88
12636;BME280;6383;50.830;7.210;2023-02-01T11:30:02;101263.75;;;8.52;67.89
12636;BME280;6383;50.830;7.210;2023-02-01T11:32:30;101252.06;;;8.51;68.22
12636;BME280;6383;50.830;7.210;2023-02-01T11:35:06;101255.88;;;8.50;68.02
12636;BME280;6383;50.830;7.210;2023-02-01T11:37:53;101248.81;;;8.49;67.58
12636;BME280;6383;50.830;7.210;2023-02-01T11:40:26;101246.38;;;8.47;68.20
12636;BME280;6383;50.830;7.210;2023-02-01T11:42:57;101236.31;;;8.48;68.45
12636;BME280;6383;50.830;7.210;2023-02-01T11:45:30;101242.31;;;8.50;68.30
12636;BME280;6383;50.830;7.210;2023-02-01T11:48:00;101252.06;;;8.51;68.92
12636;BME280;6383;50.830;7.210;2023-02-01T11:50:35;101233.09;;;8.56;67.86
12636;BME280;6383;50.830;7.210;2023-02-01T11:56:11;101224.94;;;8.61;67.53
12636;BME280;6383;50.830;7.210;2023-02-01T12:02:02;101223.84;;;8.62;68.42
12636;BME280;6383;50.830;7.210;2023-02-01T12:04:50;101218.69;;;8.61;68.05
12636;BME280;6383;50.830;7.210;2023-02-01T12:07:32;101221.41;;;8.61;68.05
12636;BME280;6383;50.830;7.210;2023-02-01T12:10:17;101212.50;;;8.60;68.34
12636;BME280;6383;50.830;7.210;2023-02-01T12:12:54;101223.03;;;8.62;67.68
12636;BME280;6383;50.830;7.210;2023-02-01T12:15:40;101208.16;;;8.59;67.40
12636;BME280;6383;50.830;7.210;2023-02-01T12:18:30;101214.91;;;8.57;67.09
12636;BME280;6383;50.830;7.210;2023-02-01T12:21:06;101210.56;;;8.56;67.64
12636;BME280;6383;50.830;7.210;2023-02-01T12:23:50;101211.66;;;8.55;66.30
12636;BME280;6383;50.830;7.210;2023-02-01T12:26:50;101201.34;;;8.52;66.64
12636;BME280;6383;50.830;7.210;2023-02-01T12:29:34;101190.75;;;8.50;66.61
12636;BME280;6383;50.830;7.210;2023-02-01T12:32:09;101204.31;;;8.50;66.25
12636;BME280;6383;50.830;7.210;2023-02-01T12:35:01;101199.97;;;8.49;66.99
12636;BME280;6383;50.830;7.210;2023-02-01T12:37:48;101196.44;;;8.48;66.12
12636;BME280;6383;50.830;7.210;2023-02-01T12:40:39;101188.31;;;8.48;66.59
12636;BME280;6383;50.830;7.210;2023-02-01T12:43:14;101185.59;;;8.48;66.83
12636;BME280;6383;50.830;7.210;2023-02-01T12:45:52;101188.88;;;8.51;66.82
12636;BME280;6383;50.830;7.210;2023-02-01T12:48:28;101194.84;;;8.53;66.72
12636;BME280;6383;50.830;7.210;2023-02-01T12:51:02;101194.56;;;8.54;66.78
12636;BME280;6383;50.830;7.210;2023-02-01T12:53:42;101198.91;;;8.55;66.07
12636;BME280;6383;50.830;7.210;2023-02-01T12:56:18;101191.31;;;8.57;65.95
12636;BME280;6383;50.830;7.210;2023-02-01T12:58:51;101192.13;;;8.58;66.40
12636;BME280;6383;50.830;7.210;2023-02-01T13:01:26;101186.44;;;8.59;66.88
12636;BME280;6383;50.830;7.210;2023-02-01T13:04:05;101172.31;;;8.62;66.27
12636;BME280;6383;50.830;7.210;2023-02-01T13:06:43;101170.13;;;8.64;67.39
12636;BME280;6383;50.830;7.210;2023-02-01T13:09:20;101170.13;;;8.64;66.66
12636;BME280;6383;50.830;7.210;2023-02-01T13:11:54;101166.34;;;8.65;65.61
12636;BME280;6383;50.830;7.210;2023-02-01T13:14:32;101157.38;;;8.65;65.69
12636;BME280;6383;50.830;7.210;2023-02-01T13:17:04;101151.69;;;8.66;65.55
12636;BME280;6383;50.830;7.210;2023-02-01T13:19:41;101146.25;;;8.66;65.99
12636;BME280;6383;50.830;7.210;2023-02-01T13:22:17;101147.06;;;8.67;65.99
12636;BME280;6383;50.830;7.210;2023-02-01T13:24:51;101139.75;;;8.67;66.02
12636;BME280;6383;50.830;7.210;2023-02-01T13:27:22;101141.66;;;8.67;65.93
12636;BME280;6383;50.830;7.210;2023-02-01T13:29:56;101135.69;;;8.70;66.28
12636;BME280;6383;50.830;7.210;2023-02-01T13:32:52;101121.28;;;8.69;65.48
12636;BME280;6383;50.830;7.210;2023-02-01T13:38:39;101129.72;;;8.68;65.98
12636;BME280;6383;50.830;7.210;2023-02-01T13:41:23;101117.78;;;8.69;66.57
12636;BME280;6383;50.830;7.210;2023-02-01T13:43:58;101131.06;;;8.70;66.58
12636;BME280;6383;50.830;7.210;2023-02-01T13:46:29;101119.41;;;8.70;66.49
12636;BME280;6383;50.830;7.210;2023-02-01T13:49:01;101121.84;;;8.71;67.08
12636;BME280;6383;50.830;7.210;2023-02-01T13:51:36;101127.53;;;8.70;67.08
12636;BME280;6383;50.830;7.210;2023-02-01T13:54:24;101118.59;;;8.69;67.06
12636;BME280;6383;50.830;7.210;2023-02-01T13:56:54;101116.97;;;8.68;67.84
12636;BME280;6383;50.830;7.210;2023-02-01T13:59:49;101112.63;;;8.67;66.93